| time (UTC) | temp C | wind direction | speed KPH | gust KPH | rain 1hr cm | rain 24hr cm | rain mn cm | humidity % | barometer mb |
| 20260507110518 | 11 | 206 | 0.0 | 4.8 | 0.00 | 0.00 | 0.00 | 78 | 1020.6 |
| 20260507105518 | 11 | 274 | 0.0 | 1.6 | 0.00 | 0.00 | 0.00 | 77 | 1020.6 |
| 20260507104517 | 11 | 218 | 0.0 | 4.8 | 0.00 | 0.00 | 0.00 | 77 | 1020.7 |
| 20260507103518 | 11 | 235 | 0.0 | 3.2 | 0.00 | 0.00 | 0.00 | 77 | 1020.7 |
| 20260507102520 | 11 | 331 | 0.0 | 1.6 | 0.00 | 0.00 | 0.00 | 77 | 1020.7 |
| 20260507101518 | 11 | 210 | 0.0 | 3.2 | 0.00 | 0.00 | 0.00 | 76 | 1020.8 |
| 20260507100517 | 11 | 291 | 0.0 | 3.2 | 0.00 | 0.00 | 0.00 | 76 | 1020.9 |
| 20260507095519 | 11 | 276 | 0.0 | 3.2 | 0.00 | 0.00 | 0.00 | 76 | 1020.9 |
| 20260507094540 | 12 | 299 | 0.0 | 1.6 | 0.00 | 0.00 | 0.00 | 75 | 1021.0 |
| 20260507093519 | 12 | 258 | 0.0 | 3.2 | 0.00 | 0.00 | 0.00 | 76 | 1021.0 |
| 20260507092517 | 12 | 266 | 0.0 | 4.8 | 0.00 | 0.00 | 0.00 | 76 | 1021.1 |
| 20260507091517 | 12 | 225 | 0.0 | 4.8 | 0.00 | 0.00 | 0.00 | 76 | 1021.2 |
| 20260507090518 | 12 | 200 | 0.0 | 3.2 | 0.00 | 0.00 | 0.00 | 76 | 1021.3 |
| 20260507085517 | 12 | 224 | 0.0 | 3.2 | 0.00 | 0.00 | 0.00 | 77 | 1021.3 |
| 20260507084538 | 12 | 274 | 0.0 | 3.2 | 0.00 | 0.00 | 0.00 | 78 | 1021.3 |
| 20260507083518 | 12 | 245 | 1.6 | 4.8 | 0.00 | 0.00 | 0.00 | 78 | 1021.2 |
| 20260507082518 | 12 | 241 | 0.0 | 3.2 | 0.00 | 0.00 | 0.00 | 78 | 1021.2 |
| 20260507081519 | 12 | 207 | 1.6 | 6.4 | 0.00 | 0.00 | 0.00 | 79 | 1021.2 |
| 20260507080538 | 12 | 186 | 0.0 | 1.6 | 0.00 | 0.00 | 0.00 | 79 | 1021.2 |
| 20260507075558 | 12 | 243 | 1.6 | 4.8 | 0.00 | 0.00 | 0.00 | 79 | 1021.3 |
| 20260507074518 | 12 | 175 | 0.0 | 1.6 | 0.00 | 0.00 | 0.00 | 80 | 1021.2 |
| 20260507073518 | 12 | 190 | 0.0 | 3.2 | 0.00 | 0.00 | 0.00 | 80 | 1021.2 |
| 20260507072519 | 12 | 208 | 0.0 | 3.2 | 0.00 | 0.00 | 0.00 | 81 | 1021.2 |
| 20260507071538 | 12 | 227 | 0.0 | 3.2 | 0.00 | 0.00 | 0.00 | 80 | 1021.1 |
| 20260507070518 | 12 | 190 | 0.0 | 3.2 | 0.00 | 0.00 | 0.00 | 80 | 1021.1 |
| 20260507065516 | 12 | 204 | 0.0 | 3.2 | 0.00 | 0.00 | 0.00 | 80 | 1021.1 |
| 20260507064521 | 13 | 274 | 0.0 | 3.2 | 0.00 | 0.00 | 0.00 | 79 | 1021.1 |
| 20260507063520 | 13 | 189 | 1.6 | 6.4 | 0.00 | 0.00 | 0.00 | 78 | 1021.1 |
| 20260507062516 | 13 | 250 | 1.6 | 4.8 | 0.00 | 0.00 | 0.00 | 78 | 1021.1 |
| 20260507061517 | 13 | 196 | 0.0 | 4.8 | 0.00 | 0.00 | 0.00 | 78 | 1021.1 |
| 20260507060537 | 13 | 189 | 0.0 | 3.2 | 0.00 | 0.00 | 0.00 | 79 | 1021.1 |
| 20260507055517 | 13 | 215 | 0.0 | 3.2 | 0.00 | 0.00 | 0.00 | 80 | 1021.1 |
| 20260507054518 | 13 | 264 | 0.0 | 3.2 | 0.00 | 0.00 | 0.00 | 80 | 1021.0 |
| 20260507053518 | 14 | 267 | 0.0 | 3.2 | 0.00 | 0.00 | 0.00 | 79 | 1021.0 |
| 20260507052518 | 14 | 262 | 0.0 | 3.2 | 0.00 | 0.00 | 0.00 | 79 | 1021.0 |
| 20260507051518 | 14 | 331 | 0.0 | 3.2 | 0.00 | 0.00 | 0.00 | 78 | 1021.0 |
| 20260507050519 | 14 | 325 | 0.0 | 4.8 | 0.00 | 0.00 | 0.00 | 78 | 1021.0 |
| 20260507045518 | 14 | 338 | 0.0 | 3.2 | 0.00 | 0.00 | 0.00 | 78 | 1021.0 |
| 20260507044559 | 15 | 317 | 0.0 | 3.2 | 0.00 | 0.00 | 0.00 | 78 | 1021.0 |
| 20260507043520 | 15 | 330 | 0.0 | 4.8 | 0.00 | 0.00 | 0.00 | 78 | 1020.9 |
| 20260507042519 | 15 | 302 | 1.6 | 4.8 | 0.00 | 0.00 | 0.00 | 77 | 1020.8 |
| 20260507041520 | 15 | 342 | 1.6 | 6.4 | 0.00 | 0.00 | 0.00 | 77 | 1020.7 |
| 20260507040521 | 15 | 338 | 1.6 | 6.4 | 0.00 | 0.00 | 0.00 | 76 | 1020.6 |
| 20260507035519 | 16 | 319 | 1.6 | 3.2 | 0.00 | 0.00 | 0.00 | 76 | 1020.4 |
| 20260507034519 | 16 | 288 | 1.6 | 4.8 | 0.00 | 0.00 | 0.00 | 75 | 1020.3 |
| 20260507033520 | 16 | 309 | 1.6 | 4.8 | 0.00 | 0.00 | 0.00 | 75 | 1020.1 |
| 20260507032559 | 16 | 350 | 0.0 | 3.2 | 0.00 | 0.00 | 0.00 | 75 | 1020.0 |
| 20260507031517 | 16 | 357 | 0.0 | 1.6 | 0.00 | 0.00 | 0.00 | 74 | 1019.8 |
| 20260507030538 | 17 | 272 | 0.0 | 3.2 | 0.00 | 0.00 | 0.00 | 74 | 1019.8 |
| 20260507025537 | 17 | 299 | 0.0 | 4.8 | 0.00 | 0.00 | 0.00 | 74 | 1019.7 |
| 20260507024517 | 17 | 338 | 0.0 | 4.8 | 0.00 | 0.00 | 0.00 | 73 | 1019.6 |
| 20260507023517 | 17 | 238 | 0.0 | 3.2 | 0.00 | 0.00 | 0.00 | 73 | 1019.5 |
| 20260507022517 | 17 | 334 | 1.6 | 3.2 | 0.00 | 0.00 | 0.00 | 72 | 1019.5 |
| 20260507021518 | 18 | 284 | 0.0 | 1.6 | 0.00 | 0.00 | 0.00 | 72 | 1019.5 |
| 20260507020518 | 18 | 318 | 1.6 | 4.8 | 0.00 | 0.00 | 0.00 | 71 | 1019.5 |
| 20260507015520 | 18 | 322 | 1.6 | 4.8 | 0.00 | 0.00 | 0.00 | 70 | 1019.6 |
| 20260507014519 | 18 | 329 | 1.6 | 4.8 | 0.00 | 0.00 | 0.00 | 70 | 1019.6 |
| 20260507013537 | 19 | 320 | 1.6 | 4.8 | 0.00 | 0.00 | 0.00 | 71 | 1019.6 |
| 20260507012518 | 19 | 311 | 0.0 | 3.2 | 0.00 | 0.00 | 0.00 | 70 | 1019.5 |
| 20260507011519 | 19 | 322 | 1.6 | 4.8 | 0.00 | 0.00 | 0.00 | 70 | 1019.4 |
| 20260507010518 | 20 | 332 | 1.6 | 3.2 | 0.00 | 0.00 | 0.00 | 68 | 1019.4 |
| 20260507005516 | 21 | 38 | 0.0 | 3.2 | 0.00 | 0.00 | 0.00 | 67 | 1019.4 |
| 20260507004520 | 21 | 246 | 0.0 | 3.2 | 0.00 | 0.00 | 0.00 | 66 | 1019.3 |
| 20260507003516 | 21 | 212 | 1.6 | 4.8 | 0.00 | 0.00 | 0.00 | 65 | 1019.3 |
| 20260507002517 | 21 | 207 | 1.6 | 3.2 | 0.00 | 0.00 | 0.00 | 65 | 1019.3 |
| 20260507001517 | 20 | 275 | 0.0 | 1.6 | 0.00 | 0.00 | 0.00 | 67 | 1019.4 |
| 20260507000537 | 20 | 111 | 3.2 | 9.7 | 0.00 | 0.00 | 0.00 | 67 | 1019.4 |
| 20260506235536 | 21 | 118 | 1.6 | 8.0 | 0.00 | 0.00 | 0.00 | 66 | 1019.4 |
| 20260506234518 | 21 | 111 | 1.6 | 8.0 | 0.00 | 0.00 | 0.00 | 66 | 1019.4 |
| 20260506233517 | 21 | 115 | 3.2 | 8.0 | 0.00 | 0.00 | 0.00 | 65 | 1019.4 |
| 20260506232518 | 20 | 201 | 0.0 | 3.2 | 0.00 | 0.00 | 0.00 | 68 | 1019.5 |
| 20260506231518 | 20 | 164 | 1.6 | 4.8 | 0.00 | 0.00 | 0.00 | 69 | 1019.5 |
| 20260506230518 | 20 | 115 | 1.6 | 8.0 | 0.00 | 0.00 | 0.00 | 68 | 1019.7 |
| 20260506225540 | 20 | 114 | 1.6 | 8.0 | 0.00 | 0.00 | 0.00 | 69 | 1019.7 |
| 20260506224518 | 20 | 106 | 4.8 | 11.3 | 0.00 | 0.00 | 0.00 | 68 | 1019.8 |
| 20260506223540 | 20 | 114 | 3.2 | 9.7 | 0.00 | 0.00 | 0.00 | 67 | 1020.0 |
| 20260506222519 | 20 | 111 | 4.8 | 11.3 | 0.00 | 0.00 | 0.00 | 68 | 1020.0 |
| 20260506221520 | 19 | 108 | 3.2 | 9.7 | 0.00 | 0.00 | 0.00 | 70 | 1020.1 |
| 20260506220520 | 19 | 126 | 3.2 | 12.9 | 0.00 | 0.00 | 0.00 | 70 | 1020.1 |
| 20260506215517 | 19 | 166 | 3.2 | 9.7 | 0.00 | 0.00 | 0.00 | 70 | 1020.1 |
| 20260506214519 | 19 | 120 | 3.2 | 9.7 | 0.00 | 0.00 | 0.00 | 70 | 1020.0 |
| 20260506213518 | 19 | 105 | 3.2 | 9.7 | 0.00 | 0.00 | 0.00 | 71 | 1020.1 |
| 20260506212517 | 19 | 100 | 1.6 | 8.0 | 0.00 | 0.00 | 0.00 | 71 | 1020.3 |
| 20260506211517 | 18 | 130 | 3.2 | 8.0 | 0.00 | 0.00 | 0.00 | 72 | 1020.4 |
| 20260506210538 | 18 | 170 | 1.6 | 4.8 | 0.00 | 0.00 | 0.00 | 72 | 1020.5 |
| 20260506205517 | 18 | 132 | 3.2 | 12.9 | 0.00 | 0.00 | 0.00 | 72 | 1020.5 |
| 20260506204517 | 18 | 180 | 3.2 | 9.7 | 0.00 | 0.00 | 0.00 | 73 | 1020.5 |
| 20260506203518 | 18 | 121 | 3.2 | 12.9 | 0.00 | 0.00 | 0.00 | 74 | 1020.4 |
| 20260506202518 | 18 | 177 | 3.2 | 9.7 | 0.00 | 0.00 | 0.00 | 74 | 1020.5 |
| 20260506201517 | 17 | 135 | 4.8 | 16.1 | 0.00 | 0.00 | 0.00 | 75 | 1020.5 |
| 20260506200519 | 17 | 188 | 1.6 | 6.4 | 0.00 | 0.00 | 0.00 | 76 | 1020.6 |
| 20260506195519 | 17 | 144 | 1.6 | 6.4 | 0.00 | 0.00 | 0.00 | 78 | 1020.8 |
| 20260506194518 | 17 | 192 | 1.6 | 6.4 | 0.00 | 0.00 | 0.00 | 77 | 1020.8 |
| 20260506193540 | 17 | 138 | 1.6 | 8.0 | 0.00 | 0.00 | 0.00 | 76 | 1020.8 |
| 20260506192519 | 17 | 175 | 3.2 | 11.3 | 0.00 | 0.00 | 0.00 | 75 | 1020.8 |
| 20260506191518 | 17 | 167 | 3.2 | 11.3 | 0.00 | 0.00 | 0.00 | 76 | 1020.7 |
| 20260506190518 | 17 | 117 | 6.4 | 12.9 | 0.00 | 0.00 | 0.00 | 75 | 1020.7 |
| 20260506185517 | 17 | 142 | 3.2 | 11.3 | 0.00 | 0.00 | 0.00 | 77 | 1020.7 |
| 20260506184519 | 17 | 125 | 6.4 | 12.9 | 0.00 | 0.00 | 0.00 | 77 | 1020.6 |
| 20260506183517 | 16 | 134 | 4.8 | 9.7 | 0.00 | 0.00 | 0.00 | 79 | 1020.7 |
| 20260506182518 | 16 | 157 | 1.6 | 6.4 | 0.00 | 0.00 | 0.00 | 81 | 1020.7 |
| 20260506181519 | 16 | 157 | 3.2 | 9.7 | 0.00 | 0.00 | 0.00 | 80 | 1020.8 |
| 20260506180518 | 15 | 147 | 3.2 | 8.0 | 0.00 | 0.00 | 0.00 | 81 | 1020.7 |
| 20260506175619 | 15 | 130 | 4.8 | 12.9 | 0.00 | 0.00 | 0.00 | 82 | 1020.8 |
| 20260506174518 | 15 | 130 | 4.8 | 12.9 | 0.00 | 0.00 | 0.00 | 82 | 1020.7 |
| 20260506173519 | 15 | 146 | 3.2 | 8.0 | 0.00 | 0.00 | 0.00 | 83 | 1020.6 |
| 20260506172519 | 15 | 112 | 4.8 | 14.5 | 0.00 | 0.00 | 0.00 | 83 | 1020.4 |
| 20260506171519 | 15 | 148 | 1.6 | 6.4 | 0.00 | 0.00 | 0.00 | 83 | 1020.6 |
| 20260506170519 | 14 | 185 | 1.6 | 4.8 | 0.00 | 0.00 | 0.00 | 84 | 1020.7 |
| 20260506165519 | 14 | 176 | 1.6 | 6.4 | 0.00 | 0.00 | 0.00 | 84 | 1020.7 |
| 20260506164519 | 14 | 195 | 1.6 | 4.8 | 0.00 | 0.00 | 0.00 | 83 | 1020.5 |
| 20260506163539 | 15 | 167 | 1.6 | 6.4 | 0.00 | 0.00 | 0.00 | 84 | 1020.6 |
| 20260506162518 | 14 | 149 | 1.6 | 6.4 | 0.00 | 0.00 | 0.00 | 85 | 1020.5 |
| 20260506161537 | 14 | 129 | 3.2 | 9.7 | 0.00 | 0.00 | 0.00 | 85 | 1020.4 |
| 20260506160538 | 14 | 206 | 1.6 | 4.8 | 0.00 | 0.00 | 0.00 | 85 | 1020.4 |
| 20260506155517 | 13 | 144 | 3.2 | 11.3 | 0.00 | 0.00 | 0.00 | 86 | 1020.1 |
| 20260506154518 | 13 | 128 | 6.4 | 14.5 | 0.00 | 0.00 | 0.00 | 88 | 1019.6 |
| 20260506153539 | 13 | 159 | 3.2 | 8.0 | 0.00 | 0.00 | 0.00 | 90 | 1020.0 |
| 20260506152540 | 12 | 158 | 1.6 | 6.4 | 0.00 | 0.00 | 0.00 | 90 | 1020.5 |
| 20260506151538 | 12 | 156 | 1.6 | 4.8 | 0.00 | 0.00 | 0.00 | 91 | 1020.5 |
| 20260506150558 | 12 | 190 | 1.6 | 4.8 | 0.00 | 0.00 | 0.00 | 91 | 1020.5 |
| 20260506145518 | 12 | 199 | 1.6 | 6.4 | 0.00 | 0.00 | 0.00 | 90 | 1020.5 |
| 20260506144519 | 12 | 147 | 1.6 | 8.0 | 0.00 | 0.00 | 0.00 | 91 | 1020.3 |
| 20260506143520 | 12 | 178 | 0.0 | 3.2 | 0.00 | 0.00 | 0.00 | 91 | 1020.2 |
| 20260506142519 | 12 | 134 | 1.6 | 4.8 | 0.00 | 0.00 | 0.00 | 92 | 1019.8 |
| 20260506141518 | 12 | 112 | 3.2 | 8.0 | 0.00 | 0.00 | 0.00 | 92 | 1019.6 |
| 20260506140520 | 12 | 110 | 6.4 | 12.9 | 0.00 | 0.00 | 0.00 | 92 | 1019.5 |
| 20260506135541 | 12 | 108 | 4.8 | 11.3 | 0.00 | 0.00 | 0.00 | 91 | 1019.5 |
| 20260506134517 | 13 | 114 | 4.8 | 14.5 | 0.00 | 0.00 | 0.00 | 91 | 1019.5 |
| 20260506133517 | 13 | 115 | 4.8 | 11.3 | 0.00 | 0.00 | 0.00 | 92 | 1019.4 |
| 20260506132517 | 13 | 128 | 1.6 | 6.4 | 0.00 | 0.00 | 0.00 | 92 | 1019.3 |
| 20260506131537 | 13 | 122 | 1.6 | 6.4 | 0.00 | 0.00 | 0.00 | 92 | 1019.2 |
| 20260506130518 | 13 | 128 | 3.2 | 8.0 | 0.00 | 0.00 | 0.00 | 91 | 1019.1 |
| 20260506125539 | 13 | 127 | 1.6 | 6.4 | 0.00 | 0.00 | 0.00 | 89 | 1019.1 |
| 20260506124518 | 13 | 126 | 1.6 | 4.8 | 0.00 | 0.00 | 0.00 | 89 | 1019.0 |
| 20260506123518 | 13 | 143 | 0.0 | 3.2 | 0.00 | 0.00 | 0.00 | 89 | 1019.0 |
| 20260506122518 | 13 | 180 | 0.0 | 1.6 | 0.00 | 0.00 | 0.00 | 89 | 1019.1 |
| 20260506121538 | 13 | 162 | 0.0 | 1.6 | 0.00 | 0.00 | 0.00 | 89 | 1019.1 |
| 20260506120518 | 13 | 200 | 0.0 | 3.2 | 0.00 | 0.00 | 0.00 | 89 | 1019.0 |
| 20260506115518 | 14 | 186 | 0.0 | 1.6 | 0.00 | 0.00 | 0.00 | 90 | 1018.9 |
| 20260506114518 | 14 | 185 | 0.0 | 0.0 | 0.00 | 0.00 | 0.00 | 90 | 1018.7 |
| 20260506113518 | 14 | 200 | 0.0 | 1.6 | 0.00 | 0.00 | 0.00 | 90 | 1018.7 |
| 20260506112548 | 14 | 177 | 0.0 | 1.6 | 0.00 | 0.00 | 0.00 | 90 | 1018.6 |
| 20260506111519 | 14 | 193 | 0.0 | 1.6 | 0.00 | 0.00 | 0.00 | 90 | 1018.5 |